KBYS/BYS METAR and TAF weather

Enter ICAO airport designator
Station Type Date Time Source
KBYS METAR 2021/07/28 20:58 UTC NOAA

KBYS 282058Z AUTO 23007KT 8SM SCT200 37/09 A3001 RMK AO2 SLP127 T03690087 57017 $


Station Type Date Time Source
KBYS Decoded METAR 2021/07/28 20:58 UTC NOAA

Fort Irwin/Barstow, Bicycle Lake Army Airfield, CA, United States (KBYS) 35-17N 116-37W 716M
Jul 28, 2021 - 04:58 PM EDT / 2021.07.28 2058 UTC
Wind: from the SW (230 degrees) at 8 MPH (7 KT):0
Visibility: 8 mile(s):0
Sky conditions: partly cloudy
Temperature: 98.4 F (36.9 C)
Heat index: 94.8 F (34.9 C):1
Dew Point: 47.7 F (8.7 C)
Relative Humidity: 18%
Pressure (altimeter): 30.01 in. Hg (1016 hPa)
Pressure tendency: 0.05 inches (1.7 hPa) lower than three hours ago
ob: KBYS 282058Z AUTO 23007KT 8SM SCT200 37/09 A3001 RMK AO2 SLP127 T03690087 57017
cycle: 21

Station Type Date Time Source
KBYS TAF 2011/12/24 07:07 UTC NOAA

TAF KBYS 250707 04010G15KT 9999 FEW250 QNH3014INS
BECMG 1213 06010KT 9999 FEW250 QNH3014INS
BECMG 1819 08010KT 9999 FEW250 QNH3023INS T14/23Z T02/14Z
BECMG 0001 VRB05KT 9999 FEW250 QNH3018INS
BECMG 0607 27005KT 9999 FEW200 QNH3014INS
BECMG 1213 27010KT 9999 SCT200 SCT200 QNH3014INS
BECMG 1819 27010G15KT 9999 SCT200 QNH3023INS T15/23Z T03/14Z
BECMG 0001 27010G15KT 9999 SCT200 QNH3018INS
BECMG 0607 27010KT 9999 FEW200 QNH3014INS
BECMG 1213 27010KT 9999 FEW200 QNH3014INS
BECMG 1819 29010G15KT 9999 FEW250 QNH3023INS T16/23Z T04/14Z
BECMG 0001 33010G15KT 9999 FEW250 QNH3018INS
BECMG 0607 33010KT 9999 SCT250 QNH3014INS
BECMG 1213 36010KT 9999 SCT250 QNH3014INS
BECMG 1819 02010KT 9999 SCT250 QNH3023INS T16/23Z T05/14Z
BECMG 0001 04010KT 9999 SCT250 QNH3018INS
BECMG 0607 04010KT 9999 FEW250 QNH3014INS
BECMG 1213 04010KT 9999 FEW250 QNH3014INS
BECMG 1819 04010G15KT 9999 FEW250 QNH3023INS T16/23Z T05/14Z
BECMG 0001 04010G15KT 9999 FEW250 QNH3018INS

Example: see airport list